createdAt,value
2018-04-04T00:00:10.291Z,12.19
2018-04-04T00:02:39.620Z,12.18
2018-04-04T00:05:08.910Z,12.15
2018-04-04T00:07:38.210Z,12.12
2018-04-04T00:10:07.548Z,12.10
2018-04-04T00:12:36.827Z,12.06
2018-04-04T00:15:05.902Z,11.99
2018-04-04T00:17:35.874Z,12.03
2018-04-04T00:20:05.177Z,12.01
2018-04-04T00:22:34.532Z,12.00
2018-04-04T00:25:03.922Z,12.00
2018-04-04T00:27:33.265Z,11.98
2018-04-04T00:30:02.554Z,12.02
2018-04-04T00:32:31.856Z,12.03
2018-04-04T00:35:01.150Z,12.03
2018-04-04T00:37:30.436Z,12.00
2018-04-04T00:39:59.841Z,12.02
2018-04-04T00:42:29.122Z,12.00
2018-04-04T00:44:58.402Z,12.01
2018-04-04T00:47:27.515Z,12.01
2018-04-04T00:49:56.819Z,12.01
2018-04-04T00:52:26.144Z,12.03
2018-04-04T00:54:55.440Z,12.06
2018-04-04T00:57:24.884Z,12.07
2018-04-04T00:59:54.181Z,12.03
2018-04-04T01:02:29.007Z,11.99
2018-04-04T01:04:58.308Z,11.94
2018-04-04T01:07:27.768Z,11.89
2018-04-04T01:09:57.043Z,11.88
2018-04-04T01:12:26.377Z,11.90
2018-04-04T01:14:55.665Z,11.90
2018-04-04T01:17:24.955Z,11.88
2018-04-04T01:19:54.360Z,11.85
2018-04-04T01:22:23.756Z,11.82
2018-04-04T01:24:53.046Z,11.80
2018-04-04T01:27:22.356Z,11.77
2018-04-04T01:29:51.764Z,11.75
2018-04-04T01:32:21.243Z,11.73
2018-04-04T01:34:50.539Z,11.73
2018-04-04T01:37:19.924Z,11.73
2018-04-04T01:39:49.293Z,11.75
2018-04-04T01:42:18.653Z,11.77
2018-04-04T01:44:47.995Z,11.75
2018-04-04T01:47:17.273Z,11.76
2018-04-04T01:49:46.611Z,11.75
2018-04-04T01:52:15.920Z,11.75
2018-04-04T01:54:45.211Z,11.74
2018-04-04T01:57:14.497Z,11.72
2018-04-04T01:59:43.924Z,11.70
2018-04-04T02:02:13.203Z,11.72
2018-04-04T02:04:42.698Z,11.73
2018-04-04T02:07:12.007Z,11.75
2018-04-04T02:09:41.301Z,11.75
2018-04-04T02:12:10.592Z,11.73
2018-04-04T02:14:40.000Z,11.75
2018-04-04T02:17:09.383Z,11.77
2018-04-04T02:19:38.659Z,11.79
2018-04-04T02:22:07.962Z,11.84
2018-04-04T02:24:37.446Z,11.83
2018-04-04T02:27:06.739Z,11.88
2018-04-04T02:29:36.061Z,11.91
2018-04-04T02:32:04.942Z,11.85
2018-04-04T02:34:34.288Z,11.78
2018-04-04T02:37:03.601Z,11.79
2018-04-04T02:39:32.881Z,11.74
2018-04-04T02:42:02.174Z,11.79
2018-04-04T02:44:31.650Z,11.83
2018-04-04T02:47:00.965Z,11.80
2018-04-04T02:49:30.272Z,11.79
2018-04-04T02:51:59.625Z,11.83
2018-04-04T02:54:28.950Z,11.85
2018-04-04T02:56:58.060Z,11.83
2018-04-04T02:59:27.353Z,11.84
2018-04-04T03:01:57.413Z,11.85
2018-04-04T03:04:26.748Z,11.86
2018-04-04T03:06:56.102Z,11.80
2018-04-04T03:09:25.397Z,11.75
2018-04-04T03:11:54.711Z,11.74
2018-04-04T03:14:24.024Z,11.67
2018-04-04T03:16:53.509Z,11.64
2018-04-04T03:19:22.937Z,11.57
2018-04-04T03:21:52.262Z,11.56
2018-04-04T03:24:21.896Z,11.52
2018-04-04T03:26:51.212Z,11.49
2018-04-04T03:29:20.506Z,11.46
2018-04-04T03:31:50.072Z,11.36
2018-04-04T03:34:19.414Z,11.32
2018-04-04T03:36:48.714Z,11.20
2018-04-04T03:39:18.036Z,11.16
2018-04-04T03:41:47.335Z,11.16
2018-04-04T03:44:16.618Z,11.17
2018-04-04T03:46:45.982Z,11.17
2018-04-04T03:49:15.251Z,11.16
2018-04-04T03:51:44.539Z,11.17
2018-04-04T03:54:13.889Z,11.23
2018-04-04T03:56:43.184Z,11.30
2018-04-04T03:59:12.589Z,11.34
2018-04-04T04:01:41.872Z,11.34
2018-04-04T04:04:11.285Z,11.35
2018-04-04T04:06:40.597Z,11.33
2018-04-04T04:09:09.889Z,11.30
2018-04-04T04:11:39.167Z,11.24
2018-04-04T04:14:08.496Z,11.20
2018-04-04T04:16:37.793Z,11.18
2018-04-04T04:19:07.063Z,11.19
2018-04-04T04:21:36.379Z,11.17
2018-04-04T04:24:05.662Z,11.13
2018-04-04T04:26:35.202Z,11.11
2018-04-04T04:29:04.482Z,11.08
2018-04-04T04:31:33.795Z,11.06
2018-04-04T04:34:03.287Z,11.10
2018-04-04T04:36:32.572Z,11.16
2018-04-04T04:39:01.986Z,11.17
2018-04-04T04:41:31.424Z,11.22
2018-04-04T04:44:00.710Z,11.24
2018-04-04T04:46:30.024Z,11.24
2018-04-04T04:48:59.348Z,11.22
2018-04-04T04:51:28.636Z,11.23
2018-04-04T04:53:57.954Z,11.26
2018-04-04T04:56:27.232Z,11.28
2018-04-04T04:58:56.613Z,11.29
2018-04-04T05:01:25.914Z,11.29
2018-04-04T05:03:55.200Z,11.29
2018-04-04T05:06:24.545Z,11.29
2018-04-04T05:08:53.822Z,11.24
2018-04-04T05:11:23.120Z,11.28
2018-04-04T05:13:52.440Z,11.30
2018-04-04T05:16:21.551Z,11.27
2018-04-04T05:18:51.099Z,11.25
2018-04-04T05:21:20.417Z,11.28
2018-04-04T05:23:49.800Z,11.31
2018-04-04T05:26:19.096Z,11.35
2018-04-04T05:28:48.457Z,11.41
2018-04-04T05:31:17.732Z,11.40
2018-04-04T05:33:47.051Z,11.39
2018-04-04T05:36:16.351Z,11.47
2018-04-04T05:38:45.627Z,11.47
2018-04-04T05:41:14.978Z,11.39
2018-04-04T05:43:44.310Z,11.41
2018-04-04T05:46:13.604Z,11.41
2018-04-04T05:48:42.916Z,11.47
2018-04-04T05:51:12.241Z,11.49
2018-04-04T05:53:41.542Z,11.47
2018-04-04T05:56:11.067Z,11.49
2018-04-04T05:58:40.351Z,11.49
2018-04-04T06:01:10.116Z,11.49
2018-04-04T06:03:39.967Z,11.55
2018-04-04T06:06:09.849Z,11.62
2018-04-04T06:08:39.762Z,11.71
2018-04-04T06:11:09.653Z,11.74
2018-04-04T06:13:39.518Z,11.78
2018-04-04T06:16:09.603Z,11.72
2018-04-04T06:18:39.446Z,11.80
2018-04-04T06:21:09.381Z,11.85
2018-04-04T06:23:39.271Z,11.86
2018-04-04T06:26:09.125Z,11.91
2018-04-04T06:28:39.042Z,11.92
2018-04-04T06:31:08.892Z,12.03
2018-04-04T06:33:38.763Z,12.04
2018-04-04T06:36:08.629Z,12.03
2018-04-04T06:38:38.487Z,12.10
2018-04-04T06:41:08.357Z,12.17
2018-04-04T06:43:38.304Z,12.19
2018-04-04T06:46:08.272Z,12.23
2018-04-04T06:48:38.118Z,12.30
2018-04-04T06:51:07.966Z,12.40
2018-04-04T06:53:37.828Z,12.38
2018-04-04T06:56:07.677Z,12.42
2018-04-04T06:58:37.587Z,12.25
2018-04-04T07:01:07.909Z,12.32
2018-04-04T07:03:37.844Z,12.37
2018-04-04T07:06:07.693Z,12.26
2018-04-04T07:08:37.563Z,12.35
2018-04-04T07:11:07.449Z,12.43
2018-04-04T07:13:37.091Z,12.39
2018-04-04T07:16:07.041Z,12.54
2018-04-04T07:18:36.996Z,12.58
2018-04-04T07:21:06.932Z,12.66
2018-04-04T07:23:36.789Z,12.76
2018-04-04T07:26:06.824Z,12.81
2018-04-04T07:28:36.467Z,12.90
2018-04-04T07:31:06.448Z,12.90
2018-04-04T07:33:36.358Z,12.94
2018-04-04T07:36:06.778Z,13.06
2018-04-04T07:38:36.819Z,13.07
2018-04-04T07:41:06.668Z,13.15
2018-04-04T07:43:36.302Z,13.20
2018-04-04T07:46:06.152Z,13.32
2018-04-04T07:48:36.064Z,13.42
2018-04-04T07:51:05.919Z,13.56
2018-04-04T07:53:35.804Z,13.38
2018-04-04T07:56:05.651Z,13.52
2018-04-04T07:58:35.263Z,13.48
2018-04-04T08:01:04.815Z,13.51
2018-04-04T08:03:34.668Z,13.53
2018-04-04T08:06:04.548Z,13.69
2018-04-04T08:08:34.194Z,13.70
2018-04-04T08:11:03.828Z,13.68
2018-04-04T08:13:33.847Z,13.59
2018-04-04T08:16:03.696Z,13.68
2018-04-04T08:18:33.271Z,13.73
2018-04-04T08:21:03.438Z,13.81
2018-04-04T08:23:32.982Z,13.81
2018-04-04T08:26:02.569Z,13.83
2018-04-04T08:28:32.131Z,13.94
2018-04-04T08:31:01.715Z,14.05
2018-04-04T08:33:31.365Z,14.03
2018-04-04T08:36:00.931Z,14.13
2018-04-04T08:38:30.494Z,14.23
2018-04-04T08:41:00.095Z,14.34
2018-04-04T08:43:29.663Z,14.43
2018-04-04T08:45:59.230Z,14.59
2018-04-04T08:48:28.748Z,14.43
2018-04-04T08:50:58.299Z,14.38
2018-04-04T08:53:27.864Z,14.55
2018-04-04T08:55:59.510Z,14.70
2018-04-04T08:58:28.971Z,14.85
2018-04-04T09:00:58.367Z,14.81
2018-04-04T09:03:27.991Z,14.94
2018-04-04T09:05:57.546Z,15.19
2018-04-04T09:08:27.330Z,15.28
2018-04-04T09:10:56.908Z,15.50
2018-04-04T09:13:26.464Z,15.62
2018-04-04T09:15:56.015Z,15.74
2018-04-04T09:18:25.714Z,15.95
2018-04-04T09:20:55.471Z,15.96
2018-04-04T09:23:25.057Z,16.04
2018-04-04T09:25:54.609Z,16.29
2018-04-04T09:28:24.221Z,16.53
2018-04-04T09:30:53.800Z,16.61
2018-04-04T09:33:23.548Z,16.74
2018-04-04T09:35:53.141Z,16.87
2018-04-04T09:38:22.731Z,16.73
2018-04-04T09:40:52.338Z,16.84
2018-04-04T09:43:22.139Z,16.94
2018-04-04T09:45:51.516Z,17.01
2018-04-04T09:48:21.093Z,17.01
2018-04-04T09:50:50.644Z,17.01
2018-04-04T09:53:20.235Z,17.14
2018-04-04T09:55:49.816Z,17.14
2018-04-04T09:58:19.372Z,17.20
2018-04-04T10:00:48.742Z,17.03
2018-04-04T10:03:18.308Z,17.18
2018-04-04T10:05:47.859Z,17.32
2018-04-04T10:08:17.579Z,17.37
2018-04-04T10:10:47.133Z,17.33
2018-04-04T10:13:16.725Z,17.19
2018-04-04T10:15:46.303Z,17.22
2018-04-04T10:18:15.927Z,17.25
2018-04-04T10:20:45.500Z,16.99
2018-04-04T10:23:15.047Z,17.08
2018-04-04T10:25:44.629Z,17.23
2018-04-04T10:28:14.195Z,17.32
2018-04-04T10:30:43.956Z,17.80
2018-04-04T10:33:13.685Z,17.90
2018-04-04T10:35:43.512Z,18.15
2018-04-04T10:38:13.069Z,18.02
2018-04-04T10:40:42.684Z,18.43
2018-04-04T10:43:12.244Z,18.91
2018-04-04T10:45:41.972Z,19.18
2018-04-04T10:48:11.545Z,19.48
2018-04-04T10:50:41.247Z,19.73
2018-04-04T10:53:11.684Z,19.76
2018-04-04T10:55:41.258Z,20.14
2018-04-04T10:58:10.907Z,20.00
2018-04-04T11:00:40.494Z,20.01
2018-04-04T11:03:10.051Z,19.67
2018-04-04T11:05:39.617Z,19.70
2018-04-04T11:08:09.534Z,20.02
2018-04-04T11:10:39.256Z,20.07
2018-04-04T11:13:08.952Z,20.05
2018-04-04T11:15:38.521Z,19.93
2018-04-04T11:18:08.196Z,19.80
2018-04-04T11:20:37.929Z,20.02
2018-04-04T11:23:07.505Z,19.74
2018-04-04T11:25:37.094Z,19.70
2018-04-04T11:28:06.642Z,19.79
2018-04-04T11:30:36.209Z,19.88
2018-04-04T11:33:05.917Z,19.76
2018-04-04T11:35:35.546Z,19.82
2018-04-04T11:38:05.128Z,19.74
2018-04-04T11:40:34.763Z,19.88
2018-04-04T11:43:04.311Z,19.89
2018-04-04T11:45:34.023Z,19.81
2018-04-04T11:48:03.602Z,19.95
2018-04-04T11:50:33.151Z,20.02
2018-04-04T11:53:02.877Z,19.80
2018-04-04T11:55:34.156Z,20.07
2018-04-04T11:58:03.729Z,20.26
2018-04-04T12:00:33.347Z,20.48
2018-04-04T12:03:03.129Z,20.73
2018-04-04T12:05:32.814Z,20.79
2018-04-04T12:08:02.369Z,20.59
2018-04-04T12:10:32.074Z,20.28
2018-04-04T12:13:01.675Z,20.32
2018-04-04T12:15:31.284Z,20.23
2018-04-04T12:18:00.981Z,20.15
2018-04-04T12:20:30.556Z,20.02
2018-04-04T12:23:00.126Z,19.92
2018-04-04T12:25:29.700Z,19.90
2018-04-04T12:27:59.296Z,20.11
2018-04-04T12:30:28.956Z,20.22
2018-04-04T12:32:58.520Z,20.41
2018-04-04T12:35:28.078Z,20.80
2018-04-04T12:37:57.830Z,21.23
2018-04-04T12:40:27.450Z,21.31
2018-04-04T12:42:57.084Z,21.63
2018-04-04T12:45:26.627Z,22.16
2018-04-04T12:47:56.195Z,22.80
2018-04-04T12:50:25.776Z,23.31
2018-04-04T12:52:55.698Z,23.73
2018-04-04T12:55:25.461Z,23.83
2018-04-04T12:57:55.211Z,24.03
2018-04-04T13:00:24.783Z,24.10
2018-04-04T13:02:54.348Z,24.28
2018-04-04T13:05:23.927Z,24.82
2018-04-04T13:07:53.196Z,24.98
2018-04-04T13:10:22.466Z,25.10
2018-04-04T13:12:51.795Z,25.28
2018-04-04T13:15:21.422Z,25.44
2018-04-04T13:17:51.189Z,25.71
2018-04-04T13:20:20.944Z,26.23
2018-04-04T13:22:50.533Z,26.64
2018-04-04T13:25:20.092Z,26.84
2018-04-04T13:27:49.669Z,26.71
2018-04-04T13:30:19.212Z,26.47
2018-04-04T13:32:48.809Z,26.86
2018-04-04T13:35:18.371Z,27.66
2018-04-04T13:37:48.053Z,28.87
2018-04-04T13:40:17.721Z,29.78
2018-04-04T13:42:47.272Z,29.91
2018-04-04T13:45:18.680Z,30.13
2018-04-04T13:47:48.236Z,30.33
2018-04-04T13:50:17.793Z,30.60
2018-04-04T13:52:47.429Z,31.17
2018-04-04T13:55:16.977Z,31.88
2018-04-04T13:57:46.592Z,32.61
2018-04-04T14:00:16.408Z,33.15
2018-04-04T14:02:45.738Z,33.43
2018-04-04T14:05:15.500Z,33.55
2018-04-04T14:07:45.116Z,34.26
2018-04-04T14:10:14.677Z,34.48
2018-04-04T14:12:44.228Z,34.77
2018-04-04T14:15:13.816Z,33.85
2018-04-04T14:17:43.521Z,32.99
2018-04-04T14:20:13.099Z,32.37
2018-04-04T14:22:42.702Z,31.20
2018-04-04T14:25:11.945Z,30.62
2018-04-04T14:27:41.703Z,30.08
2018-04-04T14:30:11.264Z,29.60
2018-04-04T14:32:40.814Z,29.82
2018-04-04T14:35:10.421Z,29.74
2018-04-04T14:37:40.053Z,29.77
2018-04-04T14:40:09.658Z,29.18
2018-04-04T14:42:39.262Z,29.46
2018-04-04T14:45:08.834Z,28.98
2018-04-04T14:47:38.408Z,29.17
2018-04-04T14:50:07.982Z,28.75
2018-04-04T14:52:37.565Z,28.53
2018-04-04T14:55:07.930Z,28.61
2018-04-04T14:57:37.544Z,28.04
2018-04-04T15:00:07.083Z,28.50
2018-04-04T15:02:36.418Z,27.40
2018-04-04T15:05:05.980Z,27.60
2018-04-04T15:07:35.564Z,27.67
2018-04-04T15:10:05.137Z,26.97
2018-04-04T15:12:34.693Z,26.81
2018-04-04T15:15:04.334Z,26.83
2018-04-04T15:17:33.891Z,26.69
2018-04-04T15:20:03.224Z,26.37
2018-04-04T15:22:32.956Z,26.01
2018-04-04T15:25:02.767Z,25.82
2018-04-04T15:27:32.323Z,26.07
2018-04-04T15:30:01.901Z,26.05
2018-04-04T15:32:31.463Z,25.90
2018-04-04T15:35:01.056Z,25.43
2018-04-04T15:37:30.624Z,25.34
2018-04-04T15:40:00.168Z,25.31
2018-04-04T15:42:29.754Z,25.11
2018-04-04T15:44:59.150Z,24.91
2018-04-04T15:47:28.725Z,24.61
2018-04-04T15:49:58.270Z,24.33
2018-04-04T15:52:27.838Z,24.06
2018-04-04T15:54:57.400Z,23.60
2018-04-04T15:57:26.980Z,23.00
2018-04-04T15:59:56.555Z,22.46
2018-04-04T16:02:26.128Z,22.25
2018-04-04T16:04:55.698Z,21.98
2018-04-04T16:07:25.201Z,21.79
2018-04-04T16:09:54.872Z,21.65
2018-04-04T16:12:24.432Z,21.47
2018-04-04T16:14:54.016Z,21.32
2018-04-04T16:17:23.775Z,21.17
2018-04-04T16:19:53.468Z,21.07
2018-04-04T16:22:23.087Z,20.96
2018-04-04T16:24:52.631Z,20.87
2018-04-04T16:27:22.187Z,20.75
2018-04-04T16:29:51.780Z,20.65
2018-04-04T16:32:21.337Z,20.54
2018-04-04T16:34:50.904Z,20.41
2018-04-04T16:37:20.484Z,20.19
2018-04-04T16:39:50.044Z,20.12
2018-04-04T16:42:19.601Z,20.03
2018-04-04T16:44:49.219Z,19.94
2018-04-04T16:47:18.768Z,19.84
2018-04-04T16:49:48.339Z,19.76
2018-04-04T16:52:17.898Z,19.69
2018-04-04T16:54:47.436Z,19.85
2018-04-04T16:57:17.044Z,19.94
2018-04-04T16:59:46.597Z,19.96
2018-04-04T17:02:16.180Z,19.99
2018-04-04T17:04:45.715Z,19.94
2018-04-04T17:07:15.270Z,19.87
2018-04-04T17:09:44.914Z,19.72
2018-04-04T17:12:14.477Z,19.60
2018-04-04T17:14:44.040Z,19.48
2018-04-04T17:17:13.595Z,19.39
2018-04-04T17:19:43.738Z,19.23
2018-04-04T17:22:13.276Z,19.08
2018-04-04T17:24:43.066Z,18.94
2018-04-04T17:27:12.837Z,18.86
2018-04-04T17:29:42.639Z,18.75
2018-04-04T17:32:12.092Z,18.63
2018-04-04T17:34:41.634Z,18.53
2018-04-04T17:37:11.193Z,18.44
2018-04-04T17:39:40.776Z,18.35
2018-04-04T17:42:10.194Z,18.29
2018-04-04T17:44:39.779Z,18.15
2018-04-04T17:47:09.369Z,18.07
2018-04-04T17:49:38.919Z,17.91
2018-04-04T17:52:08.469Z,17.85
2018-04-04T17:54:38.116Z,17.68
2018-04-04T17:57:07.861Z,17.61
2018-04-04T17:59:37.598Z,17.53
2018-04-04T18:02:07.698Z,17.51
2018-04-04T18:04:37.285Z,17.39
2018-04-04T18:07:07.045Z,17.28
2018-04-04T18:09:36.776Z,17.24
2018-04-04T18:12:06.351Z,17.20
2018-04-04T18:14:36.189Z,17.11
2018-04-04T18:17:05.755Z,17.05
2018-04-04T18:19:35.359Z,16.99
2018-04-04T18:22:05.223Z,16.95
2018-04-04T18:24:34.776Z,16.89
2018-04-04T18:27:04.539Z,16.83
2018-04-04T18:29:34.251Z,16.77
2018-04-04T18:32:03.814Z,16.70
2018-04-04T18:34:33.372Z,16.61
2018-04-04T18:37:02.728Z,16.54
2018-04-04T18:39:32.339Z,16.48
2018-04-04T18:42:01.918Z,16.40
2018-04-04T18:44:31.506Z,16.28
2018-04-04T18:47:01.078Z,16.15
2018-04-04T18:49:30.677Z,16.08
2018-04-04T18:52:00.480Z,16.02
2018-04-04T18:54:30.041Z,16.00
2018-04-04T18:56:59.645Z,15.94
2018-04-04T18:59:29.200Z,15.88
2018-04-04T19:01:58.810Z,15.87
2018-04-04T19:04:28.382Z,15.83
2018-04-04T19:06:58.023Z,15.81
2018-04-04T19:09:27.767Z,15.79
2018-04-04T19:11:57.380Z,15.73
2018-04-04T19:14:26.927Z,15.71
2018-04-04T19:16:56.535Z,15.64
2018-04-04T19:19:26.070Z,15.60
2018-04-04T19:21:55.697Z,15.55
2018-04-04T19:24:25.235Z,15.51
2018-04-04T19:26:54.823Z,15.47
2018-04-04T19:29:24.438Z,15.45
2018-04-04T19:31:53.980Z,15.42
2018-04-04T19:34:23.538Z,15.40
2018-04-04T19:36:53.298Z,15.38
2018-04-04T19:39:22.848Z,15.36
2018-04-04T19:41:52.428Z,15.34
2018-04-04T19:44:22.011Z,15.32
2018-04-04T19:46:51.639Z,15.29
2018-04-04T19:49:21.239Z,15.27
2018-04-04T19:51:50.941Z,15.27
2018-04-04T19:54:20.491Z,15.25
2018-04-04T19:56:50.033Z,15.21
2018-04-04T19:59:19.607Z,15.19
2018-04-04T20:01:49.150Z,15.17
2018-04-04T20:04:18.699Z,15.15
2018-04-04T20:06:48.280Z,15.10
2018-04-04T20:09:17.838Z,15.08
2018-04-04T20:11:47.396Z,15.06
2018-04-04T20:14:16.956Z,15.03
2018-04-04T20:16:46.316Z,15.01
2018-04-04T20:19:15.885Z,14.98
2018-04-04T20:21:45.446Z,14.97
2018-04-04T20:24:14.996Z,14.93
2018-04-04T20:26:44.580Z,14.91
2018-04-04T20:29:14.146Z,14.89
2018-04-04T20:31:43.718Z,14.87
2018-04-04T20:34:13.286Z,14.88
2018-04-04T20:36:43.263Z,14.88
2018-04-04T20:39:13.181Z,14.85
2018-04-04T20:41:42.539Z,14.84
2018-04-04T20:44:12.297Z,14.82
2018-04-04T20:46:41.996Z,14.82
2018-04-04T20:49:11.630Z,14.77
2018-04-04T20:51:41.182Z,14.77
2018-04-04T20:54:10.744Z,14.72
2018-04-04T20:56:40.366Z,14.70
2018-04-04T20:59:09.912Z,14.69
2018-04-04T21:01:39.468Z,14.70
2018-04-04T21:04:09.044Z,14.69
2018-04-04T21:06:38.940Z,14.65
2018-04-04T21:09:08.499Z,14.67
2018-04-04T21:11:38.070Z,14.65
2018-04-04T21:14:07.653Z,14.64
2018-04-04T21:16:37.231Z,14.62
2018-04-04T21:19:07.028Z,14.61
2018-04-04T21:21:36.612Z,14.59
2018-04-04T21:24:06.164Z,14.59
2018-04-04T21:26:35.722Z,14.57
2018-04-04T21:29:05.318Z,14.53
2018-04-04T21:31:34.940Z,14.51
2018-04-04T21:34:04.498Z,14.50
2018-04-04T21:36:34.072Z,14.48
2018-04-04T21:39:03.192Z,14.49
2018-04-04T21:41:32.757Z,14.47
2018-04-04T21:44:02.307Z,14.47
2018-04-04T21:46:32.076Z,14.40
2018-04-04T21:49:01.420Z,14.38
2018-04-04T21:51:30.771Z,14.39
2018-04-04T21:54:00.157Z,14.29
2018-04-04T21:56:29.696Z,14.30
2018-04-04T21:58:59.255Z,14.23
2018-04-04T22:01:28.848Z,14.22
2018-04-04T22:03:58.405Z,14.16
2018-04-04T22:06:28.012Z,14.17
2018-04-04T22:08:57.655Z,14.18
2018-04-04T22:11:27.338Z,14.18
2018-04-04T22:13:56.957Z,14.11
2018-04-04T22:16:26.496Z,14.09
2018-04-04T22:18:56.041Z,14.04
2018-04-04T22:21:25.718Z,14.04
2018-04-04T22:23:55.316Z,13.98
2018-04-04T22:26:24.927Z,13.95
2018-04-04T22:28:54.528Z,13.90
2018-04-04T22:31:24.256Z,13.79
2018-04-04T22:33:54.092Z,13.77
2018-04-04T22:36:23.648Z,13.62
2018-04-04T22:38:53.244Z,13.65
2018-04-04T22:41:22.811Z,13.57
2018-04-04T22:43:52.434Z,13.55
2018-04-04T22:46:22.842Z,13.53
2018-04-04T22:48:52.180Z,13.52
2018-04-04T22:51:21.733Z,13.56
2018-04-04T22:53:51.611Z,13.59
2018-04-04T22:56:21.221Z,13.60
2018-04-04T22:58:50.775Z,13.63
2018-04-04T23:01:20.406Z,13.64
2018-04-04T23:03:50.109Z,13.71
2018-04-04T23:06:19.748Z,13.76
2018-04-04T23:08:49.075Z,13.76
2018-04-04T23:11:18.615Z,13.74
2018-04-04T23:13:48.192Z,13.73
2018-04-04T23:16:17.744Z,13.73
2018-04-04T23:18:47.290Z,13.83
2018-04-04T23:21:17.148Z,14.07
2018-04-04T23:23:47.146Z,14.22
2018-04-04T23:26:16.735Z,14.45
2018-04-04T23:28:46.466Z,14.46
2018-04-04T23:31:16.024Z,14.54
2018-04-04T23:33:45.605Z,14.68
2018-04-04T23:36:15.193Z,14.75
2018-04-04T23:38:44.750Z,14.78
2018-04-04T23:41:14.329Z,14.82
2018-04-04T23:43:43.691Z,14.93
2018-04-04T23:46:13.151Z,14.93
2018-04-04T23:48:43.147Z,14.97
2018-04-04T23:51:12.772Z,15.02
2018-04-04T23:53:42.096Z,15.06
2018-04-04T23:56:11.764Z,15.16
2018-04-04T23:58:41.312Z,15.18
